sensor_id;sensor_type;location;lat;lon;timestamp;pressure;altitude;pressure_sealevel;temperature;humidity
41254;BME280;26987;59.928;30.306;2024-03-23T00:53:21;99010.66;;;2.89;100.00
41254;BME280;26987;59.928;30.306;2024-03-23T00:55:47;99017.81;;;2.89;100.00
41254;BME280;26987;59.928;30.306;2024-03-23T00:58:16;98991.91;;;2.84;100.00
41254;BME280;26987;59.928;30.306;2024-03-23T01:00:43;98995.78;;;2.88;100.00
41254;BME280;26987;59.928;30.306;2024-03-23T01:03:11;98999.06;;;2.90;100.00
41254;BME280;26987;59.928;30.306;2024-03-23T01:05:39;99001.31;;;2.94;100.00
41254;BME280;26987;59.928;30.306;2024-03-23T01:08:07;98991.53;;;2.94;100.00
41254;BME280;26987;59.928;30.306;2024-03-23T01:10:34;98984.81;;;2.92;100.00
41254;BME280;26987;59.928;30.306;2024-03-23T01:13:01;98971.56;;;2.92;100.00
41254;BME280;26987;59.928;30.306;2024-03-23T01:15:28;98967.09;;;2.92;100.00
41254;BME280;26987;59.928;30.306;2024-03-23T01:17:56;98963.44;;;2.93;100.00
41254;BME280;26987;59.928;30.306;2024-03-23T01:20:24;98955.88;;;2.97;100.00
41254;BME280;26987;59.928;30.306;2024-03-23T01:22:52;98953.22;;;2.97;100.00
41254;BME280;26987;59.928;30.306;2024-03-23T01:25:20;98942.25;;;3.00;100.00
41254;BME280;26987;59.928;30.306;2024-03-23T01:27:47;98945.91;;;2.99;100.00
41254;BME280;26987;59.928;30.306;2024-03-23T01:30:15;98935.31;;;2.99;100.00
41254;BME280;26987;59.928;30.306;2024-03-23T01:32:42;98931.84;;;2.98;100.00
41254;BME280;26987;59.928;30.306;2024-03-23T01:35:10;98920.44;;;2.91;100.00
41254;BME280;26987;59.928;30.306;2024-03-23T01:37:37;98927.38;;;2.99;100.00
41254;BME280;26987;59.928;30.306;2024-03-23T01:40:08;98913.31;;;2.98;100.00
41254;BME280;26987;59.928;30.306;2024-03-23T01:42:35;98922.09;;;3.06;100.00
41254;BME280;26987;59.928;30.306;2024-03-23T01:45:08;98915.59;;;3.08;100.00
41254;BME280;26987;59.928;30.306;2024-03-23T01:47:35;98900.28;;;3.03;100.00
41254;BME280;26987;59.928;30.306;2024-03-23T01:50:04;98903.75;;;3.11;100.00
41254;BME280;26987;59.928;30.306;2024-03-23T01:52:31;98900.91;;;3.12;100.00
41254;BME280;26987;59.928;30.306;2024-03-23T01:54:59;98890.31;;;3.12;100.00
41254;BME280;26987;59.928;30.306;2024-03-23T01:57:27;98894.19;;;3.17;100.00
41254;BME280;26987;59.928;30.306;2024-03-23T01:59:55;98885.25;;;3.18;100.00
41254;BME280;26987;59.928;30.306;2024-03-23T02:02:27;98880.53;;;3.20;100.00
41254;BME280;26987;59.928;30.306;2024-03-23T02:04:55;98856.50;;;3.08;100.00
41254;BME280;26987;59.928;30.306;2024-03-23T02:07:22;98870.53;;;3.15;100.00
41254;BME280;26987;59.928;30.306;2024-03-23T02:09:51;98874.03;;;3.22;100.00
41254;BME280;26987;59.928;30.306;2024-03-23T02:12:18;98867.69;;;3.17;100.00
41254;BME280;26987;59.928;30.306;2024-03-23T02:14:48;98870.94;;;3.25;100.00
41254;BME280;26987;59.928;30.306;2024-03-23T02:17:14;98870.34;;;3.30;100.00
41254;BME280;26987;59.928;30.306;2024-03-23T02:19:42;98855.88;;;3.26;100.00
41254;BME280;26987;59.928;30.306;2024-03-23T02:22:09;98866.28;;;3.34;100.00
41254;BME280;26987;59.928;30.306;2024-03-23T02:24:39;98861.56;;;3.36;100.00
41254;BME280;26987;59.928;30.306;2024-03-23T02:27:06;98861.56;;;3.36;100.00
41254;BME280;26987;59.928;30.306;2024-03-23T02:29:34;98848.16;;;3.31;100.00
41254;BME280;26987;59.928;30.306;2024-03-23T02:32:01;98854.25;;;3.38;100.00
41254;BME280;26987;59.928;30.306;2024-03-23T02:34:28;98833.88;;;3.32;100.00
41254;BME280;26987;59.928;30.306;2024-03-23T02:36:56;98842.22;;;3.43;100.00
41254;BME280;26987;59.928;30.306;2024-03-23T02:39:24;98838.13;;;3.47;100.00
41254;BME280;26987;59.928;30.306;2024-03-23T02:41:52;98836.91;;;3.49;100.00
41254;BME280;26987;59.928;30.306;2024-03-23T02:44:20;98826.53;;;3.48;100.00
41254;BME280;26987;59.928;30.306;2024-03-23T02:46:47;98826.91;;;3.51;100.00
41254;BME280;26987;59.928;30.306;2024-03-23T02:49:14;98829.75;;;3.57;100.00
41254;BME280;26987;59.928;30.306;2024-03-23T02:51:41;98825.88;;;3.59;100.00
41254;BME280;26987;59.928;30.306;2024-03-23T02:54:11;98833.41;;;3.62;100.00
41254;BME280;26987;59.928;30.306;2024-03-23T02:56:38;98820.78;;;3.64;100.00
41254;BME280;26987;59.928;30.306;2024-03-23T02:59:07;98803.63;;;3.60;100.00
41254;BME280;26987;59.928;30.306;2024-03-23T03:01:34;98815.47;;;3.64;100.00
41254;BME280;26987;59.928;30.306;2024-03-23T03:04:02;98822.41;;;3.65;100.00
41254;BME280;26987;59.928;30.306;2024-03-23T03:06:31;98814.22;;;3.67;100.00
41254;BME280;26987;59.928;30.306;2024-03-23T03:08:59;98793.06;;;3.53;100.00
41254;BME280;26987;59.928;30.306;2024-03-23T03:11:25;98807.72;;;3.63;100.00
41254;BME280;26987;59.928;30.306;2024-03-23T03:13:53;98816.69;;;3.69;100.00
41254;BME280;26987;59.928;30.306;2024-03-23T03:16:22;98810.16;;;3.64;100.00
41254;BME280;26987;59.928;30.306;2024-03-23T03:18:50;98813.81;;;3.70;100.00
41254;BME280;26987;59.928;30.306;2024-03-23T03:21:17;98811.75;;;3.72;100.00
41254;BME280;26987;59.928;30.306;2024-03-23T03:23:45;98814.19;;;3.74;100.00
41254;BME280;26987;59.928;30.306;2024-03-23T03:26:12;98789.97;;;3.63;100.00
41254;BME280;26987;59.928;30.306;2024-03-23T03:28:40;98795.84;;;3.72;100.00
41254;BME280;26987;59.928;30.306;2024-03-23T03:31:07;98799.53;;;3.78;100.00
41254;BME280;26987;59.928;30.306;2024-03-23T03:33:36;98796.25;;;3.76;100.00
41254;BME280;26987;59.928;30.306;2024-03-23T03:36:03;98787.09;;;3.72;100.00
41254;BME280;26987;59.928;30.306;2024-03-23T03:38:31;98790.94;;;3.76;100.00
41254;BME280;26987;59.928;30.306;2024-03-23T03:40:58;98768.97;;;3.62;100.00
41254;BME280;26987;59.928;30.306;2024-03-23T03:43:26;98789.34;;;3.75;100.00
41254;BME280;26987;59.928;30.306;2024-03-23T03:45:53;98738.03;;;3.42;100.00
41254;BME280;26987;59.928;30.306;2024-03-23T03:48:21;98780.75;;;3.73;100.00
41254;BME280;26987;59.928;30.306;2024-03-23T03:50:49;98785.66;;;3.76;100.00
41254;BME280;26987;59.928;30.306;2024-03-23T03:53:17;98773.44;;;3.75;100.00
41254;BME280;26987;59.928;30.306;2024-03-23T03:55:44;98683.53;;;3.14;100.00
41254;BME280;26987;59.928;30.306;2024-03-23T03:58:12;98773.22;;;3.76;100.00
41254;BME280;26987;59.928;30.306;2024-03-23T04:00:39;98771.56;;;3.75;100.00
41254;BME280;26987;59.928;30.306;2024-03-23T04:03:06;98777.88;;;3.81;100.00
41254;BME280;26987;59.928;30.306;2024-03-23T04:05:33;98741.25;;;3.64;100.00
41254;BME280;26987;59.928;30.306;2024-03-23T04:08:03;98776.66;;;3.84;100.00
41254;BME280;26987;59.928;30.306;2024-03-23T04:10:30;98758.16;;;3.70;100.00
41254;BME280;26987;59.928;30.306;2024-03-23T04:12:58;98772.16;;;3.84;100.00
41254;BME280;26987;59.928;30.306;2024-03-23T04:15:25;98777.44;;;3.84;100.00
41254;BME280;26987;59.928;30.306;2024-03-23T04:17:53;98767.25;;;3.81;100.00
41254;BME280;26987;59.928;30.306;2024-03-23T04:20:20;98780.72;;;3.86;100.00
41254;BME280;26987;59.928;30.306;2024-03-23T04:22:48;98781.75;;;3.85;100.00
41254;BME280;26987;59.928;30.306;2024-03-23T04:25:16;98783.16;;;3.88;100.00
41254;BME280;26987;59.928;30.306;2024-03-23T04:27:46;98786.00;;;3.86;100.00
41254;BME280;26987;59.928;30.306;2024-03-23T04:30:13;98786.00;;;3.86;100.00
41254;BME280;26987;59.928;30.306;2024-03-23T04:32:41;98777.88;;;3.81;100.00
41254;BME280;26987;59.928;30.306;2024-03-23T04:35:08;98772.41;;;3.76;100.00
41254;BME280;26987;59.928;30.306;2024-03-23T04:37:37;98774.63;;;3.79;100.00
41254;BME280;26987;59.928;30.306;2024-03-23T04:40:07;98792.34;;;3.85;100.00
41254;BME280;26987;59.928;30.306;2024-03-23T04:42:39;98794.19;;;3.85;100.00
41254;BME280;26987;59.928;30.306;2024-03-23T04:45:07;98786.47;;;3.76;100.00
41254;BME280;26987;59.928;30.306;2024-03-23T04:47:35;98801.31;;;3.84;100.00
41254;BME280;26987;59.928;30.306;2024-03-23T04:50:04;98795.84;;;3.79;100.00
41254;BME280;26987;59.928;30.306;2024-03-23T04:52:32;98789.75;;;3.72;100.00
41254;BME280;26987;59.928;30.306;2024-03-23T04:55:00;98794.44;;;3.76;100.00
41254;BME280;26987;59.928;30.306;2024-03-23T04:57:27;98796.66;;;3.73;100.00
41254;BME280;26987;59.928;30.306;2024-03-23T04:59:56;98801.94;;;3.79;100.00
41254;BME280;26987;59.928;30.306;2024-03-23T05:02:24;98800.50;;;3.84;100.00
41254;BME280;26987;59.928;30.306;2024-03-23T05:04:52;98788.47;;;3.81;100.00
41254;BME280;26987;59.928;30.306;2024-03-23T05:07:19;98796.22;;;3.83;100.00
41254;BME280;26987;59.928;30.306;2024-03-23T05:09:46;98768.13;;;3.68;100.00
41254;BME280;26987;59.928;30.306;2024-03-23T05:12:15;98797.81;;;3.90;100.00
41254;BME280;26987;59.928;30.306;2024-03-23T05:14:42;98803.13;;;3.90;100.00
41254;BME280;26987;59.928;30.306;2024-03-23T05:17:12;98789.88;;;3.90;100.00
41254;BME280;26987;59.928;30.306;2024-03-23T05:19:38;98793.34;;;3.91;100.00
41254;BME280;26987;59.928;30.306;2024-03-23T05:22:07;98805.75;;;3.97;100.00
41254;BME280;26987;59.928;30.306;2024-03-23T05:24:34;98805.34;;;4.00;100.00
41254;BME280;26987;59.928;30.306;2024-03-23T05:27:02;98809.19;;;4.04;100.00
41254;BME280;26987;59.928;30.306;2024-03-23T05:29:28;98798.59;;;3.98;100.00
41254;BME280;26987;59.928;30.306;2024-03-23T05:31:56;98771.13;;;3.85;100.00
41254;BME280;26987;59.928;30.306;2024-03-23T05:34:25;98805.91;;;4.09;100.00
41254;BME280;26987;59.928;30.306;2024-03-23T05:36:57;98808.72;;;4.14;100.00
41254;BME280;26987;59.928;30.306;2024-03-23T05:39:24;98762.34;;;3.91;100.00
41254;BME280;26987;59.928;30.306;2024-03-23T05:41:52;98774.28;;;4.08;100.00
41254;BME280;26987;59.928;30.306;2024-03-23T05:44:19;98806.19;;;4.33;100.00
41254;BME280;26987;59.928;30.306;2024-03-23T05:46:47;98806.34;;;4.38;100.00
41254;BME280;26987;59.928;30.306;2024-03-23T05:49:15;98789.03;;;4.36;100.00
41254;BME280;26987;59.928;30.306;2024-03-23T05:51:45;98801.22;;;4.44;100.00
41254;BME280;26987;59.928;30.306;2024-03-23T05:54:12;98805.50;;;4.45;100.00
41254;BME280;26987;59.928;30.306;2024-03-23T05:56:41;98805.06;;;4.48;100.00
41254;BME280;26987;59.928;30.306;2024-03-23T05:59:08;98802.84;;;4.45;100.00
41254;BME280;26987;59.928;30.306;2024-03-23T06:01:36;98796.78;;;4.37;100.00
41254;BME280;26987;59.928;30.306;2024-03-23T06:04:05;98814.06;;;4.47;100.00
41254;BME280;26987;59.928;30.306;2024-03-23T06:06:36;98806.47;;;4.50;100.00
41254;BME280;26987;59.928;30.306;2024-03-23T06:09:04;98790.00;;;4.41;100.00
41254;BME280;26987;59.928;30.306;2024-03-23T06:11:32;98816.47;;;4.55;100.00
41254;BME280;26987;59.928;30.306;2024-03-23T06:13:59;98805.03;;;4.54;100.00
41254;BME280;26987;59.928;30.306;2024-03-23T06:16:27;98814.00;;;4.60;100.00
41254;BME280;26987;59.928;30.306;2024-03-23T06:18:54;98819.25;;;4.67;100.00
41254;BME280;26987;59.928;30.306;2024-03-23T06:21:22;98816.53;;;4.74;100.00
41254;BME280;26987;59.928;30.306;2024-03-23T06:23:52;98813.69;;;4.75;100.00
41254;BME280;26987;59.928;30.306;2024-03-23T06:26:21;98816.53;;;4.74;100.00
41254;BME280;26987;59.928;30.306;2024-03-23T06:28:48;98808.63;;;4.67;100.00
41254;BME280;26987;59.928;30.306;2024-03-23T06:31:16;98823.88;;;4.78;100.00
41254;BME280;26987;59.928;30.306;2024-03-23T06:33:43;98816.16;;;4.70;100.00
41254;BME280;26987;59.928;30.306;2024-03-23T06:36:11;98823.47;;;4.75;100.00
41254;BME280;26987;59.928;30.306;2024-03-23T06:38:38;98820.88;;;4.68;100.00
41254;BME280;26987;59.928;30.306;2024-03-23T06:41:06;98801.56;;;4.54;100.00
41254;BME280;26987;59.928;30.306;2024-03-23T06:43:34;98829.81;;;4.74;100.00
41254;BME280;26987;59.928;30.306;2024-03-23T06:46:03;98805.41;;;4.58;100.00
41254;BME280;26987;59.928;30.306;2024-03-23T06:48:30;98810.09;;;4.63;100.00
41254;BME280;26987;59.928;30.306;2024-03-23T06:50:58;98822.50;;;4.69;100.00
41254;BME280;26987;59.928;30.306;2024-03-23T06:53:25;98822.72;;;4.67;100.00
41254;BME280;26987;59.928;30.306;2024-03-23T06:55:53;98830.38;;;4.83;100.00
41254;BME280;26987;59.928;30.306;2024-03-23T06:58:21;98831.19;;;4.83;100.00
41254;BME280;26987;59.928;30.306;2024-03-23T07:01:05;98827.00;;;4.94;100.00
41254;BME280;26987;59.928;30.306;2024-03-23T07:03:33;98822.63;;;4.81;100.00
41254;BME280;26987;59.928;30.306;2024-03-23T07:06:01;98829.09;;;4.92;100.00
41254;BME280;26987;59.928;30.306;2024-03-23T07:08:28;98826.66;;;4.90;100.00
41254;BME280;26987;59.928;30.306;2024-03-23T07:10:56;98808.72;;;4.79;100.00
41254;BME280;26987;59.928;30.306;2024-03-23T07:13:22;98825.59;;;4.91;100.00
41254;BME280;26987;59.928;30.306;2024-03-23T07:15:54;98827.63;;;4.96;100.00
41254;BME280;26987;59.928;30.306;2024-03-23T07:18:23;98816.69;;;4.79;100.00
41254;BME280;26987;59.928;30.306;2024-03-23T07:20:54;98846.09;;;4.84;100.00
41254;BME280;26987;59.928;30.306;2024-03-23T07:23:23;98853.88;;;4.79;100.00
41254;BME280;26987;59.928;30.306;2024-03-23T07:25:57;98860.63;;;4.82;100.00
41254;BME280;26987;59.928;30.306;2024-03-23T07:28:24;98819.38;;;4.47;100.00
41254;BME280;26987;59.928;30.306;2024-03-23T07:31:03;98839.50;;;4.61;100.00
41254;BME280;26987;59.928;30.306;2024-03-23T07:33:32;98849.25;;;4.67;100.00
41254;BME280;26987;59.928;30.306;2024-03-23T07:36:00;98840.91;;;4.64;100.00
41254;BME280;26987;59.928;30.306;2024-03-23T07:38:29;98844.72;;;4.75;100.00
41254;BME280;26987;59.928;30.306;2024-03-23T07:41:03;98851.41;;;4.84;100.00
41254;BME280;26987;59.928;30.306;2024-03-23T07:43:30;98856.19;;;4.69;100.00
41254;BME280;26987;59.928;30.306;2024-03-23T07:45:58;98861.34;;;4.63;100.00
41254;BME280;26987;59.928;30.306;2024-03-23T07:48:25;98818.06;;;4.31;100.00
41254;BME280;26987;59.928;30.306;2024-03-23T07:50:59;98863.38;;;4.61;100.00
41254;BME280;26987;59.928;30.306;2024-03-23T07:53:26;98841.88;;;4.37;100.00
41254;BME280;26987;59.928;30.306;2024-03-23T07:55:56;98866.44;;;4.65;100.00
41254;BME280;26987;59.928;30.306;2024-03-23T07:58:23;98872.19;;;4.55;100.00
41254;BME280;26987;59.928;30.306;2024-03-23T08:00:51;98859.06;;;4.28;100.00
41254;BME280;26987;59.928;30.306;2024-03-23T08:03:18;98872.75;;;4.25;100.00
41254;BME280;26987;59.928;30.306;2024-03-23T08:05:47;98874.47;;;4.12;100.00
41254;BME280;26987;59.928;30.306;2024-03-23T08:08:15;98870.66;;;3.88;100.00
41254;BME280;26987;59.928;30.306;2024-03-23T08:10:50;98862.34;;;3.71;100.00
41254;BME280;26987;59.928;30.306;2024-03-23T08:13:17;98884.38;;;3.78;100.00
41254;BME280;26987;59.928;30.306;2024-03-23T08:15:45;98889.03;;;3.69;100.00
41254;BME280;26987;59.928;30.306;2024-03-23T08:18:13;98889.06;;;3.62;100.00
41254;BME280;26987;59.928;30.306;2024-03-23T08:20:42;98897.03;;;3.56;100.00
41254;BME280;26987;59.928;30.306;2024-03-23T08:23:08;98894.78;;;3.52;100.00
41254;BME280;26987;59.928;30.306;2024-03-23T08:25:38;98879.09;;;3.37;100.00
41254;BME280;26987;59.928;30.306;2024-03-23T08:28:05;98908.66;;;3.48;100.00
41254;BME280;26987;59.928;30.306;2024-03-23T08:30:35;98901.72;;;3.47;100.00
41254;BME280;26987;59.928;30.306;2024-03-23T08:33:02;98910.50;;;3.47;100.00
41254;BME280;26987;59.928;30.306;2024-03-23T08:35:30;98908.03;;;3.46;100.00
41254;BME280;26987;59.928;30.306;2024-03-23T08:37:56;98917.84;;;3.38;100.00
41254;BME280;26987;59.928;30.306;2024-03-23T08:40:24;98920.06;;;3.35;100.00
41254;BME280;26987;59.928;30.306;2024-03-23T08:42:53;98927.22;;;3.34;100.00
41254;BME280;26987;59.928;30.306;2024-03-23T08:45:21;98917.22;;;3.36;100.00
41254;BME280;26987;59.928;30.306;2024-03-23T08:47:47;98920.50;;;3.38;100.00
41254;BME280;26987;59.928;30.306;2024-03-23T08:50:15;98915.59;;;3.35;100.00
41254;BME280;26987;59.928;30.306;2024-03-23T08:52:42;98915.78;;;3.40;100.00
41254;BME280;26987;59.928;30.306;2024-03-23T08:55:10;98926.16;;;3.56;100.00
41254;BME280;26987;59.928;30.306;2024-03-23T08:57:37;98903.78;;;3.45;100.00
41254;BME280;26987;59.928;30.306;2024-03-23T09:00:08;98933.72;;;3.65;100.00
41254;BME280;26987;59.928;30.306;2024-03-23T09:02:35;98933.31;;;3.55;100.00
41254;BME280;26987;59.928;30.306;2024-03-23T09:05:03;98935.16;;;3.61;100.00
41254;BME280;26987;59.928;30.306;2024-03-23T09:07:31;98941.06;;;3.63;100.00
41254;BME280;26987;59.928;30.306;2024-03-23T09:09:58;98945.56;;;3.56;100.00
41254;BME280;26987;59.928;30.306;2024-03-23T09:12:25;98938.84;;;3.53;100.00
41254;BME280;26987;59.928;30.306;2024-03-23T09:14:53;98943.13;;;3.61;100.00
41254;BME280;26987;59.928;30.306;2024-03-23T09:17:21;98956.97;;;3.70;100.00
41254;BME280;26987;59.928;30.306;2024-03-23T09:19:49;98954.31;;;3.70;100.00
41254;BME280;26987;59.928;30.306;2024-03-23T09:22:17;98950.25;;;3.61;100.00
41254;BME280;26987;59.928;30.306;2024-03-23T09:24:45;98960.63;;;3.62;100.00
41254;BME280;26987;59.928;30.306;2024-03-23T09:27:12;98949.22;;;3.42;100.00
41254;BME280;26987;59.928;30.306;2024-03-23T09:29:40;98945.97;;;3.39;100.00
41254;BME280;26987;59.928;30.306;2024-03-23T09:32:07;98966.75;;;3.43;100.00
41254;BME280;26987;59.928;30.306;2024-03-23T09:34:36;98947.78;;;3.32;100.00
41254;BME280;26987;59.928;30.306;2024-03-23T09:37:03;98970.84;;;3.38;100.00
41254;BME280;26987;59.928;30.306;2024-03-23T09:39:31;98970.41;;;3.28;100.00
41254;BME280;26987;59.928;30.306;2024-03-23T09:41:59;98979.78;;;3.37;100.00
41254;BME280;26987;59.928;30.306;2024-03-23T09:44:27;98971.84;;;3.31;100.00
41254;BME280;26987;59.928;30.306;2024-03-23T09:46:55;98991.81;;;3.40;100.00
41254;BME280;26987;59.928;30.306;2024-03-23T09:49:24;98987.72;;;3.37;100.00
41254;BME280;26987;59.928;30.306;2024-03-23T09:51:52;98976.28;;;3.17;100.00
41254;BME280;26987;59.928;30.306;2024-03-23T09:54:21;98987.50;;;3.12;100.00
41254;BME280;26987;59.928;30.306;2024-03-23T09:56:48;98967.91;;;2.93;100.00
41254;BME280;26987;59.928;30.306;2024-03-23T09:59:16;99007.06;;;3.11;100.00
41254;BME280;26987;59.928;30.306;2024-03-23T10:01:43;99008.88;;;3.10;100.00
41254;BME280;26987;59.928;30.306;2024-03-23T10:04:11;99003.34;;;2.98;100.00
41254;BME280;26987;59.928;30.306;2024-03-23T10:06:39;99015.81;;;3.11;100.00
41254;BME280;26987;59.928;30.306;2024-03-23T10:09:16;99023.19;;;3.30;100.00
41254;BME280;26987;59.928;30.306;2024-03-23T10:11:44;99027.06;;;3.27;100.00
41254;BME280;26987;59.928;30.306;2024-03-23T10:14:28;99035.66;;;3.36;100.00
41254;BME280;26987;59.928;30.306;2024-03-23T10:17:12;98906.91;;;2.52;100.00
41254;BME280;26987;59.928;30.306;2024-03-23T10:19:41;99030.56;;;3.48;100.00
41254;BME280;26987;59.928;30.306;2024-03-23T10:22:09;99027.25;;;3.19;100.00
41254;BME280;26987;59.928;30.306;2024-03-23T10:24:39;99013.19;;;3.11;100.00
41254;BME280;26987;59.928;30.306;2024-03-23T10:27:05;99038.66;;;3.19;100.00
41254;BME280;26987;59.928;30.306;2024-03-23T10:29:33;99042.31;;;3.18;100.00
41254;BME280;26987;59.928;30.306;2024-03-23T10:32:10;99044.19;;;3.31;100.00
41254;BME280;26987;59.928;30.306;2024-03-23T10:34:38;99040.50;;;3.19;100.00
41254;BME280;26987;59.928;30.306;2024-03-23T10:37:07;99048.63;;;3.24;100.00
41254;BME280;26987;59.928;30.306;2024-03-23T10:39:36;99042.50;;;3.10;100.00
41254;BME280;26987;59.928;30.306;2024-03-23T10:42:05;99062.47;;;3.12;100.00
41254;BME280;26987;59.928;30.306;2024-03-23T10:44:34;99057.56;;;3.09;100.00
41254;BME280;26987;59.928;30.306;2024-03-23T10:47:02;99031.19;;;2.81;100.00
41254;BME280;26987;59.928;30.306;2024-03-23T10:49:31;99046.94;;;2.96;100.00
41254;BME280;26987;59.928;30.306;2024-03-23T10:51:59;99068.56;;;3.06;100.00
41254;BME280;26987;59.928;30.306;2024-03-23T10:54:27;99061.00;;;3.03;100.00
41254;BME280;26987;59.928;30.306;2024-03-23T10:57:01;99061.22;;;3.01;100.00
41254;BME280;26987;59.928;30.306;2024-03-23T10:59:32;99068.75;;;3.05;100.00
41254;BME280;26987;59.928;30.306;2024-03-23T11:02:00;99069.59;;;3.05;100.00
41254;BME280;26987;59.928;30.306;2024-03-23T11:04:33;99026.09;;;2.79;100.00
41254;BME280;26987;59.928;30.306;2024-03-23T11:07:01;99060.22;;;3.02;100.00
41254;BME280;26987;59.928;30.306;2024-03-23T11:09:41;99069.63;;;3.25;100.00
41254;BME280;26987;59.928;30.306;2024-03-23T11:12:25;99050.84;;;3.13;100.00
41254;BME280;26987;59.928;30.306;2024-03-23T11:14:56;99070.25;;;3.27;100.00
41254;BME280;26987;59.928;30.306;2024-03-23T11:17:25;99051.72;;;3.21;100.00
41254;BME280;26987;59.928;30.306;2024-03-23T11:19:53;99021.69;;;3.00;100.00
41254;BME280;26987;59.928;30.306;2024-03-23T11:22:39;99085.19;;;3.49;100.00
41254;BME280;26987;59.928;30.306;2024-03-23T11:25:15;99050.06;;;3.20;100.00
41254;BME280;26987;59.928;30.306;2024-03-23T11:27:43;99066.81;;;3.40;100.00
41254;BME280;26987;59.928;30.306;2024-03-23T11:30:18;99089.31;;;3.58;100.00
41254;BME280;26987;59.928;30.306;2024-03-23T11:32:46;99098.25;;;3.57;100.00
41254;BME280;26987;59.928;30.306;2024-03-23T11:35:32;99093.38;;;3.68;100.00
41254;BME280;26987;59.928;30.306;2024-03-23T11:38:04;99103.56;;;3.57;100.00
41254;BME280;26987;59.928;30.306;2024-03-23T11:40:33;99055.75;;;3.17;100.00
41254;BME280;26987;59.928;30.306;2024-03-23T11:43:01;99105.19;;;3.45;100.00
41254;BME280;26987;59.928;30.306;2024-03-23T11:45:34;99073.50;;;3.23;100.00
41254;BME280;26987;59.928;30.306;2024-03-23T11:48:03;99102.28;;;3.33;100.00
41254;BME280;26987;59.928;30.306;2024-03-23T11:50:32;99109.59;;;3.31;100.00
41254;BME280;26987;59.928;30.306;2024-03-23T11:53:15;99105.53;;;3.35;100.00
41254;BME280;26987;59.928;30.306;2024-03-23T11:55:48;99105.13;;;3.38;100.00
41254;BME280;26987;59.928;30.306;2024-03-23T11:58:16;99116.38;;;3.40;100.00
41254;BME280;26987;59.928;30.306;2024-03-23T12:00:52;99107.44;;;3.48;100.00
41254;BME280;26987;59.928;30.306;2024-03-23T12:03:19;99120.53;;;3.76;100.00
41254;BME280;26987;59.928;30.306;2024-03-23T12:05:49;99115.59;;;3.60;100.00
41254;BME280;26987;59.928;30.306;2024-03-23T12:08:18;99109.88;;;3.56;100.00
41254;BME280;26987;59.928;30.306;2024-03-23T12:10:48;99091.69;;;3.39;100.00
41254;BME280;26987;59.928;30.306;2024-03-23T12:13:19;99114.34;;;3.49;100.00
41254;BME280;26987;59.928;30.306;2024-03-23T12:15:51;99119.63;;;3.42;100.00
41254;BME280;26987;59.928;30.306;2024-03-23T12:18:23;99127.59;;;3.49;100.00
41254;BME280;26987;59.928;30.306;2024-03-23T12:20:52;99129.44;;;3.48;100.00
41254;BME280;26987;59.928;30.306;2024-03-23T12:23:18;99129.47;;;3.55;100.00
41254;BME280;26987;59.928;30.306;2024-03-23T12:25:48;99137.22;;;3.63;100.00
41254;BME280;26987;59.928;30.306;2024-03-23T12:28:15;99112.72;;;3.48;100.00
41254;BME280;26987;59.928;30.306;2024-03-23T12:30:43;99129.84;;;3.52;100.00
41254;BME280;26987;59.928;30.306;2024-03-23T12:33:12;99119.63;;;3.42;100.00
41254;BME280;26987;59.928;30.306;2024-03-23T12:35:39;99135.94;;;3.46;100.00
41254;BME280;26987;59.928;30.306;2024-03-23T12:38:06;99135.94;;;3.46;100.00
41254;BME280;26987;59.928;30.306;2024-03-23T12:40:34;99136.56;;;3.48;100.00
41254;BME280;26987;59.928;30.306;2024-03-23T12:43:01;99127.75;;;3.40;100.00
41254;BME280;26987;59.928;30.306;2024-03-23T12:45:29;99148.41;;;3.52;100.00
41254;BME280;26987;59.928;30.306;2024-03-23T12:47:56;99128.75;;;3.26;100.00
41254;BME280;26987;59.928;30.306;2024-03-23T12:50:25;99135.72;;;3.40;100.00
41254;BME280;26987;59.928;30.306;2024-03-23T12:52:52;99151.06;;;3.52;100.00
41254;BME280;26987;59.928;30.306;2024-03-23T12:55:20;99142.88;;;3.40;100.00
41254;BME280;26987;59.928;30.306;2024-03-23T12:57:48;99147.78;;;3.50;100.00
41254;BME280;26987;59.928;30.306;2024-03-23T13:00:16;99157.19;;;3.59;100.00
41254;BME280;26987;59.928;30.306;2024-03-23T13:02:43;99166.16;;;3.58;100.00
41254;BME280;26987;59.928;30.306;2024-03-23T13:05:12;99145.31;;;3.42;100.00
41254;BME280;26987;59.928;30.306;2024-03-23T13:07:40;99143.06;;;3.38;100.00
41254;BME280;26987;59.928;30.306;2024-03-23T13:10:08;99157.53;;;3.43;100.00
41254;BME280;26987;59.928;30.306;2024-03-23T13:12:35;99169.38;;;3.47;100.00
41254;BME280;26987;59.928;30.306;2024-03-23T13:15:04;99154.84;;;3.29;100.00
41254;BME280;26987;59.928;30.306;2024-03-23T13:17:31;99175.44;;;3.34;100.00
41254;BME280;26987;59.928;30.306;2024-03-23T13:19:59;99179.13;;;3.39;100.00
41254;BME280;26987;59.928;30.306;2024-03-23T13:22:26;99170.56;;;3.37;100.00
41254;BME280;26987;59.928;30.306;2024-03-23T13:24:56;99172.22;;;3.38;100.00
41254;BME280;26987;59.928;30.306;2024-03-23T13:27:23;99147.69;;;3.23;100.00
41254;BME280;26987;59.928;30.306;2024-03-23T13:29:51;99177.31;;;3.47;100.00
41254;BME280;26987;59.928;30.306;2024-03-23T13:32:18;99159.34;;;3.35;100.00
41254;BME280;26987;59.928;30.306;2024-03-23T13:34:45;99175.47;;;3.40;100.00
41254;BME280;26987;59.928;30.306;2024-03-23T13:37:16;99166.13;;;3.45;100.00
41254;BME280;26987;59.928;30.306;2024-03-23T13:39:44;99184.09;;;3.56;100.00
41254;BME280;26987;59.928;30.306;2024-03-23T13:42:12;99183.25;;;3.56;100.00
41254;BME280;26987;59.928;30.306;2024-03-23T13:44:42;99191.00;;;3.50;100.00
41254;BME280;26987;59.928;30.306;2024-03-23T13:47:09;99191.81;;;3.51;100.00
41254;BME280;26987;59.928;30.306;2024-03-23T13:49:37;99193.06;;;3.55;100.00